Kilimanjaro, Kilimanjaro International Airport (HTKJ)

NameKilimanjaro International Airport
CityKilimanjaro
CountryUnited Republic of Tanzania
ICAOHTKJ
IATAJRO
Altitude894 m
CoordinatesGoogle Map
Live Air TrafficLiveATC.net
METARHTKJ 251700Z 00000KT 9999 BKN024 FEW025CB 23/22 Q1017 NOSIG
2020-04-25 17:00:00 Wind: North (0°) 0 m/s - Visibility: > 10000 m - Temperature: 23 °C - Dew point: 22 °C - Humidity: 94.1% - Pressure: 1017 hPa

Sorry, no flights used the airport in this database.